createdAt,value
2018-05-08T08:27:56.385Z,99873.41
2018-05-08T08:30:27.137Z,99867.12
2018-05-08T08:32:56.881Z,99867.00
2018-05-08T08:35:26.577Z,99874.17
2018-05-08T08:37:56.348Z,99864.81
2018-05-08T08:40:26.101Z,99872.37
2018-05-08T08:42:55.928Z,99869.66
2018-05-08T08:45:25.524Z,99870.28
2018-05-08T08:47:55.410Z,99854.88
2018-05-08T08:50:25.174Z,99851.89
2018-05-08T08:52:55.073Z,99843.16
2018-05-08T08:55:24.795Z,99840.48
2018-05-08T08:57:54.628Z,99836.26
2018-05-08T09:00:24.439Z,99830.48
2018-05-08T09:02:54.129Z,99833.81
2018-05-08T09:05:24.303Z,99833.48
2018-05-08T09:07:53.953Z,99824.56
2018-05-08T09:10:23.998Z,99824.09
2018-05-08T09:12:53.761Z,99823.95
2018-05-08T09:15:23.530Z,99817.87
2018-05-08T09:17:53.312Z,99819.27
2018-05-08T09:20:23.113Z,99821.43
2018-05-08T09:22:52.835Z,99804.95
2018-05-08T09:25:22.606Z,99806.66
2018-05-08T09:27:52.467Z,99807.34
2018-05-08T09:30:22.355Z,99802.20
2018-05-08T09:32:52.032Z,99801.57
2018-05-08T09:35:21.818Z,99795.79
2018-05-08T09:37:51.508Z,99804.69
2018-05-08T09:40:21.743Z,99804.48
2018-05-08T09:42:51.589Z,99808.41
2018-05-08T09:45:21.153Z,99807.10
2018-05-08T09:47:50.894Z,99809.86
2018-05-08T09:50:20.672Z,99805.19
2018-05-08T09:52:50.296Z,99790.20
2018-05-08T09:55:20.293Z,99794.68
2018-05-08T09:57:50.975Z,99784.56
2018-05-08T10:00:20.689Z,99780.80
2018-05-08T10:02:50.501Z,99779.21
2018-05-08T10:05:20.297Z,99781.56
2018-05-08T10:07:50.227Z,99764.90
2018-05-08T10:10:20.037Z,99767.66
2018-05-08T10:12:49.733Z,99765.09
2018-05-08T10:15:20.205Z,99759.99
2018-05-08T10:17:49.997Z,99760.09
2018-05-08T10:20:19.811Z,99755.97
2018-05-08T10:22:49.568Z,99754.51
2018-05-08T10:25:19.263Z,99753.05
2018-05-08T10:27:48.974Z,99749.03
2018-05-08T10:30:18.658Z,99753.41
2018-05-08T10:32:48.536Z,99744.86
2018-05-08T10:35:18.205Z,99740.76
2018-05-08T10:37:47.878Z,99745.91
2018-05-08T10:40:17.811Z,99732.84
2018-05-08T10:42:47.544Z,99735.08
2018-05-08T10:45:18.333Z,99732.04
2018-05-08T10:47:48.112Z,99730.34
2018-05-08T10:50:18.942Z,99721.91
2018-05-08T10:52:48.703Z,99720.55
2018-05-08T10:55:18.466Z,99727.36
2018-05-08T10:57:48.451Z,99724.80
2018-05-08T11:00:18.069Z,99729.48
2018-05-08T11:02:47.717Z,99729.17
2018-05-08T11:05:17.540Z,99706.37
2018-05-08T11:07:47.340Z,99714.67
2018-05-08T11:10:17.083Z,99707.75
2018-05-08T11:12:46.838Z,99690.65
2018-05-08T11:15:16.570Z,99697.29
2018-05-08T11:17:46.344Z,99693.05
2018-05-08T11:20:16.131Z,99693.25
2018-05-08T11:22:45.944Z,99697.83
2018-05-08T11:25:15.682Z,99695.66
2018-05-08T11:27:45.474Z,99691.80
2018-05-08T11:30:15.376Z,99685.48
2018-05-08T11:32:45.495Z,99673.31
2018-05-08T11:35:16.656Z,99669.37
2018-05-08T11:37:46.753Z,99663.63
2018-05-08T11:40:18.066Z,99668.36
2018-05-08T11:42:48.305Z,99663.23
2018-05-08T11:45:18.479Z,99653.27
2018-05-08T11:47:48.770Z,99656.52
2018-05-08T11:50:19.154Z,99641.88
2018-05-08T11:52:49.370Z,99643.33
2018-05-08T11:55:19.799Z,99648.36
2018-05-08T11:57:49.843Z,99637.19
2018-05-08T12:00:19.754Z,99629.70
2018-05-08T12:02:49.417Z,99628.70
2018-05-08T12:05:19.309Z,99618.73
2018-05-08T12:07:49.258Z,99622.52
2018-05-08T12:10:19.182Z,99625.02
2018-05-08T12:12:48.969Z,99622.85
2018-05-08T12:15:18.650Z,99616.39
2018-05-08T12:17:48.284Z,99611.96
2018-05-08T12:20:17.974Z,99611.56
2018-05-08T12:22:47.608Z,99610.05
2018-05-08T12:25:17.404Z,99604.13
2018-05-08T12:27:47.065Z,99598.54
2018-05-08T12:30:16.926Z,99592.69
2018-05-08T12:32:46.656Z,99587.44
2018-05-08T12:35:17.230Z,99586.46
2018-05-08T12:37:48.064Z,99577.84
2018-05-08T12:40:17.639Z,99565.79
2018-05-08T12:42:47.341Z,99570.99
2018-05-08T12:45:17.041Z,99564.02
2018-05-08T12:47:46.925Z,99549.27
2018-05-08T12:50:16.814Z,99554.00
2018-05-08T12:52:46.633Z,99557.80
2018-05-08T12:55:16.420Z,99564.20
2018-05-08T12:57:46.212Z,99557.14
2018-05-08T13:00:16.018Z,99555.55
2018-05-08T13:02:45.743Z,99544.94
2018-05-08T13:05:15.704Z,99537.16
2018-05-08T13:07:45.509Z,99536.70
2018-05-08T13:10:15.159Z,99536.41
2018-05-08T13:12:45.041Z,99543.21
2018-05-08T13:15:14.691Z,99546.95
2018-05-08T13:17:44.491Z,99549.31
2018-05-08T13:20:14.150Z,99533.35
2018-05-08T13:22:43.826Z,99535.94
2018-05-08T13:25:13.557Z,99540.19
2018-05-08T13:27:43.747Z,99532.46
2018-05-08T13:30:13.435Z,99532.48
2018-05-08T13:32:43.118Z,99523.44
2018-05-08T13:35:12.901Z,99523.59
2018-05-08T13:37:42.751Z,99516.61
2018-05-08T13:40:12.701Z,99519.48
2018-05-08T13:42:42.338Z,99524.70
2018-05-08T13:45:12.065Z,99522.26
2018-05-08T13:47:41.853Z,99517.51
2018-05-08T13:50:11.595Z,99525.58
2018-05-08T13:52:41.404Z,99514.56
2018-05-08T13:55:11.368Z,99518.02
2018-05-08T13:57:41.053Z,99513.05
2018-05-08T14:00:10.739Z,99523.39
2018-05-08T14:02:40.476Z,99516.34
2018-05-08T14:05:10.368Z,99506.37
2018-05-08T14:07:40.227Z,99501.65
2018-05-08T14:10:09.940Z,99493.31
2018-05-08T14:12:39.638Z,99485.75
2018-05-08T14:15:09.391Z,99483.81
2018-05-08T14:17:39.077Z,99482.58
2018-05-08T14:20:08.923Z,99492.55
2018-05-08T14:22:40.484Z,99483.89
2018-05-08T14:25:10.435Z,99489.02
2018-05-08T14:27:40.514Z,99477.58
2018-05-08T14:30:10.355Z,99480.68
2018-05-08T14:32:40.059Z,99471.42
2018-05-08T14:35:09.838Z,99472.16
2018-05-08T14:37:40.188Z,99475.75
2018-05-08T14:40:09.950Z,99473.33
2018-05-08T14:42:39.978Z,99469.62
2018-05-08T14:45:10.093Z,99478.41
2018-05-08T14:47:39.830Z,99472.88
2018-05-08T14:50:09.649Z,99470.11
2018-05-08T14:52:39.354Z,99463.55
2018-05-08T14:55:10.067Z,99460.37
2018-05-08T14:57:39.807Z,99452.84
2018-05-08T15:00:10.027Z,99450.74
2018-05-08T15:02:39.996Z,99458.94
2018-05-08T15:05:09.849Z,99458.23
2018-05-08T15:07:39.711Z,99458.11
2018-05-08T15:10:10.204Z,99454.11
2018-05-08T15:12:39.773Z,99453.00
2018-05-08T15:15:09.728Z,99460.24
2018-05-08T15:17:39.502Z,99449.95
2018-05-08T15:20:09.146Z,99456.22
2018-05-08T15:22:39.025Z,99458.45
2018-05-08T15:25:08.643Z,99439.98
2018-05-08T15:27:38.293Z,99438.26
2018-05-08T15:30:08.036Z,99436.11
2018-05-08T15:32:38.897Z,99439.36
2018-05-08T15:35:08.559Z,99446.09
2018-05-08T15:37:43.864Z,99441.03
2018-05-08T15:40:15.761Z,99433.44
2018-05-08T15:42:46.521Z,99420.95
2018-05-08T15:45:16.338Z,99426.27
2018-05-08T15:47:46.038Z,99430.14
2018-05-08T15:50:15.752Z,99430.14
2018-05-08T15:52:45.373Z,99422.77
2018-05-08T15:55:16.260Z,99425.26
2018-05-08T15:57:46.948Z,99419.47
2018-05-08T16:00:16.638Z,99416.98
2018-05-08T16:02:47.218Z,99420.00
2018-05-08T16:05:16.958Z,99414.72
2018-05-08T16:07:46.687Z,99412.86
2018-05-08T16:10:16.560Z,99414.86
2018-05-08T16:12:46.248Z,99410.38
2018-05-08T16:15:15.738Z,99412.50
2018-05-08T16:17:45.542Z,99421.78
2018-05-08T16:20:15.351Z,99416.59
2018-05-08T16:22:45.092Z,99419.78
2018-05-08T16:25:14.938Z,99421.60
2018-05-08T16:27:44.646Z,99411.13
2018-05-08T16:30:14.571Z,99403.27
2018-05-08T16:32:44.247Z,99410.50
2018-05-08T16:35:13.900Z,99407.88
2018-05-08T16:37:43.704Z,99402.47
2018-05-08T16:40:13.403Z,99409.01
2018-05-08T16:42:43.117Z,99405.30
2018-05-08T16:45:12.835Z,99405.53
2018-05-08T16:47:42.522Z,99407.32
2018-05-08T16:50:12.309Z,99406.48
2018-05-08T16:52:42.161Z,99404.53
2018-05-08T16:55:13.934Z,99409.34
2018-05-08T16:57:43.646Z,99412.09
2018-05-08T17:00:13.315Z,99409.30
2018-05-08T17:02:43.165Z,99409.05
2018-05-08T17:05:12.881Z,99408.42
2018-05-08T17:07:42.600Z,99413.47
2018-05-08T17:10:12.299Z,99412.72
2018-05-08T17:12:42.023Z,99415.11
2018-05-08T17:15:11.894Z,99416.14
2018-05-08T17:17:41.619Z,99419.05
2018-05-08T17:20:11.407Z,99416.37
2018-05-08T17:22:41.077Z,99420.98
2018-05-08T17:25:10.697Z,99413.91
2018-05-08T17:27:40.479Z,99414.46
2018-05-08T17:30:10.309Z,99414.09
2018-05-08T17:32:40.132Z,99412.84
2018-05-08T17:35:09.947Z,99410.78
2018-05-08T17:37:39.639Z,99421.77
2018-05-08T17:40:09.422Z,99416.85
2018-05-08T17:42:39.040Z,99417.22
2018-05-08T17:52:06.114Z,99413.27
2018-05-08T17:54:35.734Z,99414.81
2018-05-08T17:57:05.676Z,99415.69
2018-05-08T17:59:35.447Z,99416.31
2018-05-08T18:02:05.457Z,99413.83
2018-05-08T18:04:35.110Z,99416.70
2018-05-08T18:07:04.952Z,99411.54
2018-05-08T18:09:34.639Z,99405.04
2018-05-08T18:12:04.474Z,99410.44
2018-05-08T18:14:34.183Z,99411.33
2018-05-08T18:17:03.838Z,99404.34
2018-05-08T18:19:33.634Z,99399.84
2018-05-08T18:22:03.319Z,99401.27
2018-05-08T18:24:32.999Z,99407.23
2018-05-08T18:27:02.790Z,99413.53
2018-05-08T18:29:32.466Z,99417.68
2018-05-08T18:32:02.308Z,99410.39
2018-05-08T18:34:31.957Z,99412.53
2018-05-08T18:37:01.758Z,99409.66
2018-05-08T18:39:31.752Z,99407.18
2018-05-08T18:42:01.522Z,99406.77
2018-05-08T18:44:31.306Z,99413.41
2018-05-08T18:47:01.034Z,99415.88
2018-05-08T18:49:30.789Z,99424.05
2018-05-08T18:52:00.485Z,99430.45
2018-05-08T18:54:30.210Z,99433.17
2018-05-08T18:56:59.977Z,99420.67
2018-05-08T18:59:29.790Z,99423.14
2018-05-08T19:02:00.748Z,99429.47
2018-05-08T19:04:30.508Z,99426.88
2018-05-08T19:07:00.473Z,99425.78
2018-05-08T19:09:30.038Z,99427.12
2018-05-08T19:12:05.929Z,99426.40
2018-05-08T19:14:47.335Z,99419.88
2018-05-08T19:17:17.412Z,99420.91
2018-05-08T19:20:17.842Z,99419.73
2018-05-08T19:22:47.654Z,99417.18
2018-05-08T19:25:17.370Z,99418.66
2018-05-08T19:27:47.106Z,99416.38
2018-05-08T19:30:21.755Z,99413.47
2018-05-08T19:32:51.457Z,99416.02
2018-05-08T19:35:25.328Z,99411.36
2018-05-08T19:38:15.002Z,99416.14
2018-05-08T19:40:44.790Z,99416.17
2018-05-08T19:43:14.420Z,99406.60
2018-05-08T19:45:44.153Z,99409.91
2018-05-08T19:48:13.951Z,99405.30
2018-05-08T19:50:43.797Z,99401.41
2018-05-08T19:53:17.816Z,99403.38
2018-05-08T19:55:49.416Z,99401.94
2018-05-08T19:58:20.096Z,99396.64
2018-05-08T20:00:49.897Z,99396.94
2018-05-08T20:03:19.649Z,99395.62
2018-05-08T20:05:49.370Z,99391.05
2018-05-08T20:08:19.068Z,99396.77
2018-05-08T20:10:48.850Z,99394.09
2018-05-08T20:13:18.460Z,99395.69
2018-05-08T20:15:48.041Z,99401.31
2018-05-08T20:18:17.623Z,99404.97
2018-05-08T20:20:47.382Z,99411.30
2018-05-08T20:23:16.990Z,99415.44
2018-05-08T20:25:46.805Z,99412.77
2018-05-08T20:28:16.340Z,99413.31
2018-05-08T20:30:46.224Z,99410.06
2018-05-08T20:33:15.820Z,99405.75
2018-05-08T20:35:45.438Z,99409.75
2018-05-08T20:38:16.272Z,99411.84
2018-05-08T20:40:45.830Z,99419.20
2018-05-08T20:43:15.476Z,99417.75
2018-05-08T20:45:45.330Z,99412.91
2018-05-08T20:48:15.083Z,99414.78
2018-05-08T20:50:44.729Z,99414.55
2018-05-08T20:53:14.496Z,99421.53
2018-05-08T20:55:44.085Z,99420.08
2018-05-08T20:58:13.899Z,99423.28
2018-05-08T21:00:43.711Z,99422.80
2018-05-08T21:03:13.540Z,99425.59
2018-05-08T21:05:43.231Z,99424.25
2018-05-08T21:08:12.857Z,99417.84
2018-05-08T21:10:42.692Z,99422.95
2018-05-08T21:13:12.495Z,99422.47
2018-05-08T21:15:42.204Z,99430.20
2018-05-08T21:18:11.924Z,99430.12
2018-05-08T21:20:41.739Z,99424.65
2018-05-08T21:23:11.464Z,99424.41
2018-05-08T21:25:41.265Z,99421.85
2018-05-08T21:28:15.062Z,99427.20
2018-05-08T21:31:15.389Z,99428.30
2018-05-08T21:33:45.029Z,99424.89
2018-05-08T21:36:14.691Z,99429.11
2018-05-08T21:38:44.469Z,99436.68
2018-05-08T21:41:14.083Z,99435.34
2018-05-08T21:43:43.749Z,99435.23
2018-05-08T21:46:13.662Z,99438.63
2018-05-08T21:48:43.494Z,99436.16
2018-05-08T21:51:13.143Z,99440.17
2018-05-08T21:53:42.967Z,99460.95
2018-05-08T21:56:12.529Z,99462.41
2018-05-08T21:58:42.135Z,99457.34
2018-05-08T22:01:11.861Z,99454.52
2018-05-08T22:03:41.465Z,99484.77
2018-05-08T22:06:11.129Z,99470.80
2018-05-08T22:08:40.960Z,99465.08
2018-05-08T22:11:10.730Z,99458.89
2018-05-08T22:13:40.294Z,99478.94
2018-05-08T22:16:09.830Z,99476.75
2018-05-08T22:18:39.432Z,99481.39
2018-05-08T22:21:09.415Z,99482.37
2018-05-08T22:23:39.096Z,99477.14
2018-05-08T22:26:08.895Z,99489.41
2018-05-08T22:28:38.636Z,99481.23
2018-05-08T22:31:08.366Z,99485.14
2018-05-08T22:33:38.102Z,99485.02
2018-05-08T22:36:07.876Z,99483.91
2018-05-08T22:38:37.544Z,99477.71
2018-05-08T22:41:07.292Z,99473.60
2018-05-08T22:43:37.079Z,99477.25
2018-05-08T22:46:06.770Z,99478.22
2018-05-08T22:48:36.503Z,99476.14
2018-05-08T22:51:06.091Z,99478.45
2018-05-08T22:53:35.823Z,99474.81
2018-05-08T22:56:06.664Z,99478.22
2018-05-08T22:58:36.247Z,99473.23
2018-05-08T23:01:05.974Z,99475.55
2018-05-08T23:03:35.657Z,99479.19
2018-05-08T23:06:05.433Z,99473.23
2018-05-08T23:08:35.172Z,99464.24
2018-05-08T23:11:04.877Z,99463.27
2018-05-08T23:13:34.551Z,99462.80
2018-05-08T23:16:04.333Z,99470.67
2018-05-08T23:18:34.116Z,99469.44
2018-05-08T23:21:03.784Z,99470.27
2018-05-08T23:23:33.555Z,99469.76
2018-05-08T23:26:03.218Z,99469.53
2018-05-08T23:28:32.873Z,99466.31
2018-05-08T23:31:02.495Z,99461.28
2018-05-08T23:33:32.146Z,99459.20
2018-05-08T23:36:01.867Z,99462.58
2018-05-08T23:38:31.549Z,99463.02
2018-05-08T23:41:01.027Z,99459.16
2018-05-08T23:43:30.759Z,99454.53
2018-05-08T23:46:00.612Z,99455.94
2018-05-08T23:48:30.226Z,99465.11
2018-05-08T23:50:59.835Z,99461.58
2018-05-08T23:53:29.604Z,99463.23
2018-05-08T23:55:59.352Z,99456.78
2018-05-08T23:58:29.079Z,99464.77
